createdAt,value
2023-01-31T00:01:26.076Z,1.31
2023-01-31T00:03:53.801Z,1.28
2023-01-31T00:06:21.417Z,1.27
2023-01-31T00:08:48.750Z,1.24
2023-01-31T00:11:16.486Z,1.22
2023-01-31T00:13:43.054Z,1.20
2023-01-31T00:16:10.753Z,1.16
2023-01-31T00:18:39.220Z,1.10
2023-01-31T00:21:10.235Z,1.21
2023-01-31T00:23:39.228Z,1.21
2023-01-31T00:26:11.805Z,1.09
2023-01-31T00:28:39.403Z,1.07
2023-01-31T00:31:06.293Z,1.03
2023-01-31T00:33:33.362Z,1.03
2023-01-31T00:36:03.087Z,1.12
2023-01-31T00:38:29.539Z,1.11
2023-01-31T00:40:55.988Z,1.06
2023-01-31T00:43:22.551Z,0.97
2023-01-31T00:45:49.109Z,0.92
2023-01-31T00:48:15.650Z,0.94
2023-01-31T00:50:42.166Z,1.01
2023-01-31T00:53:08.700Z,1.03
2023-01-31T00:55:35.638Z,1.20
2023-01-31T00:58:02.232Z,1.12
2023-01-31T01:00:28.809Z,1.02
2023-01-31T01:02:55.349Z,0.98
2023-01-31T01:05:22.298Z,0.94
2023-01-31T01:07:48.957Z,0.90
2023-01-31T01:10:15.509Z,0.88
2023-01-31T01:12:44.178Z,0.84
2023-01-31T01:15:10.743Z,0.81
2023-01-31T01:17:39.065Z,0.84
2023-01-31T01:20:05.835Z,0.81
2023-01-31T01:22:35.577Z,0.87
2023-01-31T01:25:02.515Z,0.91
2023-01-31T01:27:31.520Z,0.82
2023-01-31T01:29:59.150Z,0.75
2023-01-31T01:32:25.846Z,0.70
2023-01-31T01:34:53.120Z,0.67
2023-01-31T01:37:22.668Z,0.72
2023-01-31T01:39:49.862Z,0.70
2023-01-31T01:42:19.287Z,0.62
2023-01-31T01:44:45.776Z,0.59
2023-01-31T01:47:31.540Z,0.64
2023-01-31T01:50:00.873Z,0.70
2023-01-31T01:52:28.836Z,0.65
2023-01-31T01:54:57.713Z,0.69
2023-01-31T01:57:33.350Z,0.65
2023-01-31T02:00:30.002Z,0.66
2023-01-31T02:02:58.416Z,0.55
2023-01-31T02:05:29.826Z,0.64
2023-01-31T02:07:56.468Z,0.68
2023-01-31T02:10:26.837Z,0.63
2023-01-31T02:12:53.471Z,0.60
2023-01-31T02:15:22.969Z,0.53
2023-01-31T02:17:49.493Z,0.50
2023-01-31T02:20:15.988Z,0.55
2023-01-31T02:22:48.257Z,0.54
2023-01-31T02:25:19.908Z,0.51
2023-01-31T02:28:05.429Z,0.52
2023-01-31T02:30:33.868Z,0.50
2023-01-31T02:33:02.551Z,0.56
2023-01-31T02:35:29.983Z,0.57
2023-01-31T02:37:59.446Z,0.67
2023-01-31T02:40:26.561Z,0.75
2023-01-31T02:43:02.846Z,0.71
2023-01-31T02:45:43.995Z,0.52
2023-01-31T02:48:10.499Z,0.44
2023-01-31T02:50:55.505Z,0.46
2023-01-31T02:53:29.874Z,0.54
2023-01-31T02:56:23.748Z,0.45
2023-01-31T02:58:55.100Z,0.39
2023-01-31T03:01:24.672Z,0.47
2023-01-31T03:03:51.973Z,0.45
2023-01-31T03:06:24.751Z,0.36
2023-01-31T03:09:02.474Z,0.34
2023-01-31T03:11:49.418Z,0.41
2023-01-31T03:14:24.972Z,0.43
2023-01-31T03:17:30.219Z,0.40
2023-01-31T03:20:02.648Z,0.38
2023-01-31T03:22:33.014Z,0.34
2023-01-31T03:25:00.550Z,0.50
2023-01-31T03:27:27.573Z,0.50
2023-01-31T03:29:57.211Z,0.43
2023-01-31T03:32:27.582Z,0.45
2023-01-31T03:34:55.407Z,0.30
2023-01-31T03:37:30.952Z,0.29
2023-01-31T03:40:03.724Z,0.37
2023-01-31T03:42:46.059Z,0.31
2023-01-31T03:45:12.484Z,0.27
2023-01-31T03:47:43.386Z,0.23
2023-01-31T03:50:14.113Z,0.19
2023-01-31T03:52:46.584Z,0.13
2023-01-31T03:55:19.204Z,0.02
2023-01-31T03:57:49.708Z,0.01
2023-01-31T04:00:19.054Z,0.17
2023-01-31T04:02:48.867Z,0.21
2023-01-31T04:05:21.361Z,0.12
2023-01-31T04:07:48.125Z,0.01
2023-01-31T04:10:18.630Z,-0.06
2023-01-31T04:12:45.831Z,-0.04
2023-01-31T04:15:15.257Z,0.01
2023-01-31T04:17:44.114Z,0.15
2023-01-31T04:20:12.121Z,-0.11
2023-01-31T04:22:39.187Z,-0.21
2023-01-31T04:25:06.150Z,-0.18
2023-01-31T04:27:33.308Z,-0.16
2023-01-31T04:30:01.617Z,-0.18
2023-01-31T04:32:28.388Z,-0.21
2023-01-31T04:34:55.749Z,-0.05
2023-01-31T04:37:25.817Z,-0.05
2023-01-31T04:39:52.324Z,-0.18
2023-01-31T04:42:18.884Z,-0.26
2023-01-31T04:44:45.394Z,-0.32
2023-01-31T04:47:11.857Z,-0.28
2023-01-31T04:49:38.361Z,-0.33
2023-01-31T04:52:05.000Z,-0.19
2023-01-31T04:54:31.704Z,-0.19
2023-01-31T04:56:58.367Z,-0.28
2023-01-31T04:59:25.062Z,-0.28
2023-01-31T05:01:51.612Z,-0.31
2023-01-31T05:04:19.845Z,-0.18
2023-01-31T05:06:46.351Z,-0.21
2023-01-31T05:09:13.079Z,-0.32
2023-01-31T05:11:39.577Z,-0.33
2023-01-31T05:14:06.960Z,-0.37
2023-01-31T05:16:33.522Z,-0.37
2023-01-31T05:19:02.244Z,-0.44
2023-01-31T05:21:28.717Z,-0.32
2023-01-31T05:23:55.193Z,-0.35
2023-01-31T05:26:21.717Z,-0.33
2023-01-31T05:28:48.220Z,-0.41
2023-01-31T05:31:15.063Z,-0.37
2023-01-31T05:33:43.591Z,-0.31
2023-01-31T05:36:11.424Z,-0.15
2023-01-31T05:38:37.869Z,-0.41
2023-01-31T05:41:04.491Z,-0.45
2023-01-31T05:43:31.294Z,-0.48
2023-01-31T05:45:58.041Z,-0.49
2023-01-31T05:48:26.587Z,-0.43
2023-01-31T05:50:53.071Z,-0.30
2023-01-31T05:53:21.646Z,-0.32
2023-01-31T05:55:48.508Z,-0.40
2023-01-31T05:58:17.125Z,-0.44
2023-01-31T06:00:43.577Z,-0.52
2023-01-31T06:03:10.410Z,-0.46
2023-01-31T06:05:36.945Z,-0.33
2023-01-31T06:08:03.509Z,-0.18
2023-01-31T06:10:30.089Z,-0.23
2023-01-31T06:12:56.539Z,-0.28
2023-01-31T06:15:23.269Z,-0.27
2023-01-31T06:17:49.858Z,-0.28
2023-01-31T06:20:17.233Z,-0.35
2023-01-31T06:22:43.706Z,-0.22
2023-01-31T06:25:10.426Z,-0.18
2023-01-31T06:27:36.956Z,-0.27
2023-01-31T06:30:05.892Z,-0.29
2023-01-31T06:32:32.919Z,-0.36
2023-01-31T06:35:00.187Z,-0.29
2023-01-31T06:37:27.745Z,-0.20
2023-01-31T06:39:54.284Z,-0.24
2023-01-31T06:42:20.877Z,-0.27
2023-01-31T06:44:47.426Z,-0.21
2023-01-31T06:47:14.750Z,-0.22
2023-01-31T06:49:41.632Z,-0.07
2023-01-31T06:52:08.117Z,-0.18
2023-01-31T06:54:34.675Z,-0.29
2023-01-31T06:57:01.125Z,-0.36
2023-01-31T06:59:27.566Z,-0.37
2023-01-31T07:01:54.621Z,-0.31
2023-01-31T07:04:21.283Z,-0.17
2023-01-31T07:06:47.750Z,-0.22
2023-01-31T07:09:14.431Z,-0.17
2023-01-31T07:11:40.907Z,-0.20
2023-01-31T07:14:07.374Z,-0.14
2023-01-31T07:16:33.949Z,-0.14
2023-01-31T07:19:00.588Z,-0.21
2023-01-31T07:21:27.130Z,-0.28
2023-01-31T07:23:54.494Z,-0.23
2023-01-31T07:26:21.139Z,-0.22
2023-01-31T07:28:47.884Z,-0.11
2023-01-31T07:31:16.492Z,-0.17
2023-01-31T07:33:43.072Z,-0.27
2023-01-31T07:36:12.806Z,-0.23
2023-01-31T07:38:39.528Z,-0.24
2023-01-31T07:41:06.167Z,-0.23
2023-01-31T07:43:33.280Z,-0.18
2023-01-31T07:45:59.951Z,-0.16
2023-01-31T07:48:26.689Z,-0.24
2023-01-31T07:50:57.971Z,-0.23
2023-01-31T07:53:24.552Z,-0.15
2023-01-31T07:55:51.012Z,-0.15
2023-01-31T07:58:19.773Z,-0.05
2023-01-31T08:01:05.049Z,-0.16
2023-01-31T08:03:34.715Z,-0.19
2023-01-31T08:06:01.281Z,-0.14
2023-01-31T08:08:27.861Z,-0.21
2023-01-31T08:10:54.413Z,-0.24
2023-01-31T08:13:22.337Z,-0.11
2023-01-31T08:15:51.360Z,-0.02
2023-01-31T08:18:17.852Z,-0.03
2023-01-31T08:20:45.004Z,-0.05
2023-01-31T08:23:11.535Z,-0.13
2023-01-31T08:25:40.033Z,-0.15
2023-01-31T08:28:06.481Z,-0.14
2023-01-31T08:30:33.102Z,0.00
2023-01-31T08:33:00.064Z,0.00
2023-01-31T08:35:28.016Z,-0.03
2023-01-31T08:38:03.731Z,-0.11
2023-01-31T08:40:37.142Z,-0.19
2023-01-31T08:43:03.639Z,-0.03
2023-01-31T08:45:30.567Z,0.08
2023-01-31T08:47:58.052Z,0.03
2023-01-31T08:50:28.147Z,-0.06
2023-01-31T08:52:54.854Z,-0.01
2023-01-31T08:55:22.318Z,-0.05
2023-01-31T08:57:59.367Z,0.13
2023-01-31T09:00:26.487Z,0.02
2023-01-31T09:02:56.934Z,-0.12
2023-01-31T09:05:24.043Z,-0.15
2023-01-31T09:07:50.639Z,0.01
2023-01-31T09:10:20.157Z,0.05
2023-01-31T09:12:47.133Z,-0.07
2023-01-31T09:15:13.979Z,-0.07
2023-01-31T09:17:40.892Z,-0.06
2023-01-31T09:20:10.078Z,0.15
2023-01-31T09:22:39.244Z,0.12
2023-01-31T09:25:06.232Z,0.06
2023-01-31T09:27:33.344Z,0.13
2023-01-31T09:30:00.113Z,0.11
2023-01-31T09:32:26.661Z,0.08
2023-01-31T09:34:53.220Z,0.09
2023-01-31T09:37:20.649Z,0.15
2023-01-31T09:39:47.195Z,0.36
2023-01-31T09:42:43.177Z,0.37
2023-01-31T09:45:16.960Z,0.34
2023-01-31T09:47:46.354Z,0.31
2023-01-31T09:50:12.853Z,0.41
2023-01-31T09:52:39.597Z,0.42
2023-01-31T09:55:08.307Z,0.60
2023-01-31T09:57:49.908Z,0.69
2023-01-31T10:00:22.504Z,0.71
2023-01-31T10:03:06.607Z,0.75
2023-01-31T10:05:53.870Z,0.94
2023-01-31T10:08:41.159Z,0.93
2023-01-31T10:11:14.099Z,0.82
2023-01-31T10:13:49.768Z,0.83
2023-01-31T10:16:36.549Z,1.05
2023-01-31T10:19:06.560Z,0.97
2023-01-31T10:21:38.825Z,0.93
2023-01-31T10:24:24.019Z,1.01
2023-01-31T10:26:53.478Z,1.21
2023-01-31T10:29:29.478Z,1.18
2023-01-31T10:31:59.162Z,1.12
2023-01-31T10:34:29.514Z,1.23
2023-01-31T10:36:59.053Z,1.31
2023-01-31T10:39:43.887Z,1.22
2023-01-31T10:42:22.073Z,1.11
2023-01-31T10:44:54.601Z,1.26
2023-01-31T10:47:31.904Z,1.33
2023-01-31T10:49:58.427Z,1.17
2023-01-31T10:52:31.185Z,1.16
2023-01-31T10:55:16.445Z,1.41
2023-01-31T10:57:43.183Z,1.24
2023-01-31T11:00:29.792Z,1.14
2023-01-31T11:02:57.395Z,1.10
2023-01-31T11:05:27.337Z,1.28
2023-01-31T11:07:54.046Z,1.40
2023-01-31T11:10:25.172Z,1.29
2023-01-31T11:13:02.108Z,1.23
2023-01-31T11:15:30.097Z,1.22
2023-01-31T11:18:01.011Z,1.35
2023-01-31T11:20:30.362Z,1.53
2023-01-31T11:22:58.047Z,1.34
2023-01-31T11:25:25.507Z,1.33
2023-01-31T11:27:57.808Z,1.29
2023-01-31T11:30:30.831Z,1.49
2023-01-31T11:32:57.908Z,1.25
2023-01-31T11:35:27.825Z,1.23
2023-01-31T11:37:57.726Z,1.29
2023-01-31T11:40:27.946Z,1.45
2023-01-31T11:43:01.698Z,1.31
2023-01-31T11:45:30.900Z,1.13
2023-01-31T11:47:58.814Z,1.14
2023-01-31T11:50:37.593Z,1.25
2023-01-31T11:53:05.296Z,1.20
2023-01-31T11:55:36.605Z,0.79
2023-01-31T11:58:06.357Z,0.71
2023-01-31T12:00:33.564Z,0.58
2023-01-31T12:03:09.130Z,0.64
2023-01-31T12:05:44.020Z,0.92
2023-01-31T12:08:29.139Z,0.87
2023-01-31T12:10:57.124Z,0.74
2023-01-31T12:13:24.114Z,0.89
2023-01-31T12:15:58.958Z,0.93
2023-01-31T12:18:27.625Z,0.68
2023-01-31T12:21:03.220Z,0.54
2023-01-31T12:23:50.616Z,0.53
2023-01-31T12:26:26.366Z,0.75
2023-01-31T12:29:10.888Z,0.52
2023-01-31T12:31:50.656Z,0.38
2023-01-31T12:34:33.983Z,0.28
2023-01-31T12:37:03.378Z,0.25
2023-01-31T12:39:50.223Z,0.46
2023-01-31T12:42:28.192Z,0.21
2023-01-31T12:45:12.210Z,0.01
2023-01-31T12:47:46.778Z,0.03
2023-01-31T12:50:36.285Z,0.15
2023-01-31T12:53:18.423Z,-0.16
2023-01-31T12:55:58.513Z,-0.32
2023-01-31T12:58:43.752Z,-0.21
2023-01-31T13:01:16.759Z,-0.09
2023-01-31T13:04:07.472Z,-0.27
2023-01-31T13:06:33.987Z,-0.36
2023-01-31T13:09:11.119Z,-0.30
2023-01-31T13:11:42.897Z,-0.13
2023-01-31T13:14:21.714Z,-0.28
2023-01-31T13:16:53.402Z,-0.44
2023-01-31T13:19:23.732Z,-0.44
2023-01-31T13:21:53.812Z,-0.26
2023-01-31T13:24:49.854Z,-0.36
2023-01-31T13:27:21.972Z,-0.48
2023-01-31T13:30:00.512Z,-0.45
2023-01-31T13:32:29.123Z,-0.36
2023-01-31T13:35:17.270Z,-0.54
2023-01-31T13:37:46.041Z,-0.68
2023-01-31T13:40:24.013Z,-0.68
2023-01-31T13:42:50.693Z,-0.49
2023-01-31T13:45:50.450Z,-0.81
2023-01-31T13:48:22.775Z,-0.89
2023-01-31T13:50:54.601Z,-0.95
2023-01-31T13:53:24.218Z,-0.68
2023-01-31T13:55:51.420Z,-0.80
2023-01-31T13:58:27.300Z,-0.87
2023-01-31T14:00:58.945Z,-0.91
2023-01-31T14:03:25.997Z,-0.64
2023-01-31T14:05:52.509Z,-0.76
2023-01-31T14:08:25.250Z,-0.84
2023-01-31T14:10:52.204Z,-0.89
2023-01-31T14:13:34.117Z,-0.80
2023-01-31T14:16:01.437Z,-0.65
2023-01-31T14:18:41.549Z,-0.75
2023-01-31T14:21:27.091Z,-0.70
2023-01-31T14:23:53.620Z,-0.79
2023-01-31T14:26:39.648Z,-0.62
2023-01-31T14:29:10.425Z,-0.80
2023-01-31T14:31:39.278Z,-0.86
2023-01-31T14:34:06.122Z,-1.03
2023-01-31T14:36:36.906Z,-1.00
2023-01-31T14:39:18.323Z,-0.93
2023-01-31T14:41:47.831Z,-0.99
2023-01-31T14:44:29.374Z,-1.20
2023-01-31T14:47:07.369Z,-1.35
2023-01-31T14:49:34.302Z,-1.18
2023-01-31T14:52:15.471Z,-1.39
2023-01-31T14:54:50.853Z,-1.64
2023-01-31T14:57:39.709Z,-1.78
2023-01-31T15:00:16.799Z,-1.63
2023-01-31T15:02:43.388Z,-1.38
2023-01-31T15:05:13.428Z,-1.45
2023-01-31T15:07:58.783Z,-1.53
2023-01-31T15:10:44.049Z,-1.73
2023-01-31T15:13:29.773Z,-1.62
2023-01-31T15:15:58.184Z,-1.61
2023-01-31T15:18:26.866Z,-1.66
2023-01-31T15:20:57.478Z,-1.87
2023-01-31T15:23:26.266Z,-1.88
2023-01-31T15:25:54.164Z,-1.75
2023-01-31T15:28:22.635Z,-1.82
2023-01-31T15:30:49.778Z,-1.79
2023-01-31T15:33:42.411Z,-1.78
2023-01-31T15:36:31.967Z,-1.55
2023-01-31T15:39:02.896Z,-1.68
2023-01-31T15:41:37.670Z,-1.81
2023-01-31T15:44:12.039Z,-1.95
2023-01-31T15:46:38.617Z,-2.07
2023-01-31T15:49:36.869Z,-2.00
2023-01-31T15:52:08.580Z,-1.88
2023-01-31T15:54:35.188Z,-2.08
2023-01-31T15:57:02.614Z,-2.10
2023-01-31T15:59:30.958Z,-2.06
2023-01-31T16:01:59.859Z,-1.87
2023-01-31T16:04:27.554Z,-1.91
2023-01-31T16:06:54.481Z,-2.00
2023-01-31T16:09:24.194Z,-2.06
2023-01-31T16:11:50.964Z,-2.15
2023-01-31T16:14:17.560Z,-2.18
2023-01-31T16:16:47.993Z,-2.00
2023-01-31T16:19:19.102Z,-2.07
2023-01-31T16:21:46.405Z,-2.29
2023-01-31T16:24:20.072Z,-2.47
2023-01-31T16:27:07.075Z,-2.40
2023-01-31T16:29:46.432Z,-2.20
2023-01-31T16:32:19.710Z,-2.65
2023-01-31T16:34:51.912Z,-2.62
2023-01-31T16:37:28.373Z,-2.77
2023-01-31T16:39:59.472Z,-2.85
2023-01-31T16:42:29.350Z,-2.95
2023-01-31T16:44:57.927Z,-2.98
2023-01-31T16:47:39.739Z,-2.79
2023-01-31T16:50:22.650Z,-2.75
2023-01-31T16:52:51.798Z,-2.87
2023-01-31T16:55:24.334Z,-2.94
2023-01-31T16:57:50.905Z,-3.18
2023-01-31T17:00:23.464Z,-3.24
2023-01-31T17:02:50.925Z,-3.27
2023-01-31T17:05:20.785Z,-3.16
2023-01-31T17:07:49.038Z,-3.38
2023-01-31T17:10:23.673Z,-3.63
2023-01-31T17:12:52.671Z,-3.69
2023-01-31T17:15:20.423Z,-3.56
2023-01-31T17:17:48.039Z,-3.41
2023-01-31T17:20:15.880Z,-3.40
2023-01-31T17:22:45.696Z,-3.29
2023-01-31T17:25:23.146Z,-3.81
2023-01-31T17:27:49.881Z,-4.31
2023-01-31T17:30:17.784Z,-4.65
2023-01-31T17:32:44.396Z,-4.68
2023-01-31T17:35:31.557Z,-4.92
2023-01-31T17:37:58.552Z,-4.89
2023-01-31T17:40:25.082Z,-4.70
2023-01-31T17:42:57.038Z,-4.57
2023-01-31T17:45:24.797Z,-4.40
2023-01-31T17:47:51.528Z,-4.59
2023-01-31T17:50:22.468Z,-4.70
2023-01-31T17:52:48.993Z,-4.77
2023-01-31T17:55:16.078Z,-4.62
2023-01-31T17:57:42.610Z,-4.87
2023-01-31T18:00:11.621Z,-5.32
2023-01-31T18:02:38.598Z,-5.33
2023-01-31T18:05:05.530Z,-5.02
2023-01-31T18:07:32.044Z,-4.76
2023-01-31T18:09:58.555Z,-4.94
2023-01-31T18:12:25.040Z,-5.30
2023-01-31T18:14:51.549Z,-5.06
2023-01-31T18:17:19.820Z,-4.81
2023-01-31T18:19:46.425Z,-4.69
2023-01-31T18:22:14.251Z,-5.27
2023-01-31T18:24:41.061Z,-5.67
2023-01-31T18:27:07.543Z,-5.71
2023-01-31T18:29:34.057Z,-5.47
2023-01-31T18:32:02.687Z,-5.33
2023-01-31T18:34:30.416Z,-5.20
2023-01-31T18:36:58.629Z,-5.16
2023-01-31T18:39:26.317Z,-5.11
2023-01-31T18:41:53.443Z,-5.21
2023-01-31T18:44:20.136Z,-5.31
2023-01-31T18:46:46.710Z,-5.72
2023-01-31T18:49:14.125Z,-5.87
2023-01-31T18:51:44.016Z,-5.81
2023-01-31T18:54:12.016Z,-5.92
2023-01-31T18:56:39.921Z,-6.07
2023-01-31T18:59:07.853Z,-5.99
2023-01-31T19:01:34.307Z,-5.64
2023-01-31T19:04:02.630Z,-6.11
2023-01-31T19:06:30.672Z,-6.30
2023-01-31T19:08:57.979Z,-6.43
2023-01-31T19:11:26.150Z,-6.54
2023-01-31T19:13:52.871Z,-6.62
2023-01-31T19:16:20.792Z,-6.38
2023-01-31T19:18:48.175Z,-6.01
2023-01-31T19:21:22.198Z,-6.31
2023-01-31T19:23:50.572Z,-6.28
2023-01-31T19:26:17.910Z,-6.46
2023-01-31T19:28:44.968Z,-6.75
2023-01-31T19:31:13.182Z,-6.62
2023-01-31T19:33:40.361Z,-6.74
2023-01-31T19:36:10.986Z,-6.76
2023-01-31T19:38:39.057Z,-6.83
2023-01-31T19:41:10.286Z,-6.74
2023-01-31T19:43:37.535Z,-7.00
2023-01-31T19:46:04.559Z,-6.86
2023-01-31T19:48:31.433Z,-7.08
2023-01-31T19:50:59.222Z,-6.91
2023-01-31T19:53:27.145Z,-7.17
2023-01-31T19:55:56.616Z,-7.11
2023-01-31T19:58:32.119Z,-6.80
2023-01-31T20:00:59.283Z,-6.40
2023-01-31T20:03:25.764Z,-6.91
2023-01-31T20:05:52.357Z,-7.17
2023-01-31T20:08:18.965Z,-6.86
2023-01-31T20:10:45.400Z,-6.91
2023-01-31T20:13:13.191Z,-7.38
2023-01-31T20:15:39.756Z,-7.68
2023-01-31T20:18:07.411Z,-7.71
2023-01-31T20:20:33.934Z,-7.46
2023-01-31T20:23:01.665Z,-7.71
2023-01-31T20:25:28.204Z,-7.41
2023-01-31T20:27:56.039Z,-7.39
2023-01-31T20:30:23.678Z,-7.44
2023-01-31T20:32:50.485Z,-7.43
2023-01-31T20:35:17.146Z,-7.62
2023-01-31T20:37:44.044Z,-7.36
2023-01-31T20:40:12.446Z,-7.32
2023-01-31T20:42:38.905Z,-7.55
2023-01-31T20:45:07.245Z,-7.53
2023-01-31T20:47:35.129Z,-7.78
2023-01-31T20:50:02.765Z,-7.83
2023-01-31T20:52:29.243Z,-7.82
2023-01-31T20:54:55.780Z,-7.76
2023-01-31T20:57:24.473Z,-7.58
2023-01-31T20:59:50.969Z,-7.32
2023-01-31T21:02:17.483Z,-7.51
2023-01-31T21:04:43.993Z,-7.25
2023-01-31T21:07:10.503Z,-6.98
2023-01-31T21:09:36.982Z,-6.90
2023-01-31T21:12:03.530Z,-6.48
2023-01-31T21:14:30.024Z,-6.53
2023-01-31T21:16:56.564Z,-7.25
2023-01-31T21:19:23.019Z,-7.34
2023-01-31T21:21:49.461Z,-7.31
2023-01-31T21:24:17.261Z,-7.23
2023-01-31T21:26:44.958Z,-7.34
2023-01-31T21:29:11.411Z,-7.48
2023-01-31T21:31:37.970Z,-7.43
2023-01-31T21:34:07.902Z,-7.88
2023-01-31T21:36:36.351Z,-8.06
2023-01-31T21:39:06.011Z,-7.95
2023-01-31T21:41:51.767Z,-7.80
2023-01-31T21:44:18.403Z,-7.56
2023-01-31T21:46:46.731Z,-7.52
2023-01-31T21:49:14.858Z,-7.37
2023-01-31T21:51:41.342Z,-7.23
2023-01-31T21:54:08.857Z,-7.34
2023-01-31T21:56:35.412Z,-7.62
2023-01-31T21:59:02.813Z,-7.58
2023-01-31T22:01:30.571Z,-7.42
2023-01-31T22:03:57.144Z,-7.32
2023-01-31T22:06:31.226Z,-7.27
2023-01-31T22:08:59.070Z,-7.17
2023-01-31T22:11:25.716Z,-7.14
2023-01-31T22:13:55.801Z,-7.33
2023-01-31T22:16:22.962Z,-7.27
2023-01-31T22:18:49.606Z,-6.96
2023-01-31T22:21:17.835Z,-6.84
2023-01-31T22:23:49.063Z,-6.60
2023-01-31T22:26:18.083Z,-6.76
2023-01-31T22:28:44.567Z,-6.78
2023-01-31T22:31:11.847Z,-6.71
2023-01-31T22:33:40.283Z,-6.70
2023-01-31T22:36:08.053Z,-6.70
2023-01-31T22:38:35.897Z,-6.63
2023-01-31T22:41:03.796Z,-6.58
2023-01-31T22:43:30.618Z,-6.38
2023-01-31T22:46:01.318Z,-6.06
2023-01-31T22:48:27.788Z,-5.87
2023-01-31T22:51:02.876Z,-5.77
2023-01-31T22:53:30.798Z,-5.69
2023-01-31T22:56:02.929Z,-5.48
2023-01-31T22:58:31.098Z,-5.38
2023-01-31T23:00:58.295Z,-5.27
2023-01-31T23:03:25.353Z,-5.13
2023-01-31T23:05:51.855Z,-5.00
2023-01-31T23:08:18.576Z,-4.93
2023-01-31T23:10:45.393Z,-4.91
2023-01-31T23:13:12.985Z,-4.81
2023-01-31T23:15:39.567Z,-4.92
2023-01-31T23:18:06.564Z,-5.11
2023-01-31T23:20:33.200Z,-5.58
2023-01-31T23:23:01.091Z,-5.89
2023-01-31T23:25:29.259Z,-6.06
2023-01-31T23:27:56.768Z,-6.17
2023-01-31T23:30:23.981Z,-6.21
2023-01-31T23:32:51.216Z,-6.04
2023-01-31T23:35:19.175Z,-5.64
2023-01-31T23:37:46.399Z,-5.55
2023-01-31T23:40:13.950Z,-5.67
2023-01-31T23:42:40.707Z,-5.77
2023-01-31T23:45:07.465Z,-5.83
2023-01-31T23:47:33.914Z,-6.13
2023-01-31T23:50:00.480Z,-6.24
2023-01-31T23:52:26.930Z,-6.21
2023-01-31T23:54:53.444Z,-6.06
2023-01-31T23:57:20.029Z,-6.19
2023-01-31T23:59:47.050Z,-6.66
